Map

Track Data

SID SEASON NUMBER BASIN SUBBASIN NAME ISO_TIME NATURE LAT LON WMO_WIND WMO_PRES WMO_AGENCY TRACK_TYPE DIST2LAND LANDFALL IFLAG USA_AGENCY USA_ATCF_ID USA_LAT USA_LON USA_RECORD USA_STATUS USA_WIND USA_PRES USA_SSHS USA_R34_NE USA_R34_SE USA_R34_SW USA_R34_NW USA_R50_NE USA_R50_SE USA_R50_SW USA_R50_NW USA_R64_NE USA_R64_SE USA_R64_SW USA_R64_NW USA_POCI USA_ROCI USA_RMW USA_EYE TOKYO_LAT TOKYO_LON TOKYO_GRADE TOKYO_WIND TOKYO_PRES TOKYO_R50_DIR TOKYO_R50_LONG TOKYO_R50_SHORT TOKYO_R30_DIR TOKYO_R30_LONG TOKYO_R30_SHORT TOKYO_LAND CMA_LAT CMA_LON CMA_CAT CMA_WIND CMA_PRES HKO_LAT HKO_LON HKO_CAT HKO_WIND HKO_PRES NEWDELHI_LAT NEWDELHI_LON NEWDELHI_GRADE NEWDELHI_WIND NEWDELHI_PRES NEWDELHI_CI NEWDELHI_DP NEWDELHI_POCI REUNION_LAT REUNION_LON REUNION_TYPE REUNION_WIND REUNION_PRES REUNION_TNUM REUNION_CI REUNION_RMW REUNION_R34_NE REUNION_R34_SE REUNION_R34_SW REUNION_R34_NW REUNION_R50_NE REUNION_R50_SE REUNION_R50_SW REUNION_R50_NW REUNION_R64_NE REUNION_R64_SE REUNION_R64_SW REUNION_R64_NW BOM_LAT BOM_LON BOM_TYPE BOM_WIND BOM_PRES BOM_TNUM BOM_CI BOM_RMW BOM_R34_NE BOM_R34_SE BOM_R34_SW BOM_R34_NW BOM_R50_NE BOM_R50_SE BOM_R50_SW BOM_R50_NW BOM_R64_NE BOM_R64_SE BOM_R64_SW BOM_R64_NW BOM_ROCI BOM_POCI BOM_EYE BOM_POS_METHOD BOM_PRES_METHOD NADI_LAT NADI_LON NADI_CAT NADI_WIND NADI_PRES WELLINGTON_LAT WELLINGTON_LON WELLINGTON_WIND WELLINGTON_PRES DS824_LAT DS824_LON DS824_STAGE DS824_WIND DS824_PRES TD9636_LAT TD9636_LON TD9636_STAGE TD9636_WIND TD9636_PRES TD9635_LAT TD9635_LON TD9635_WIND TD9635_PRES TD9635_ROCI NEUMANN_LAT NEUMANN_LON NEUMANN_CLASS NEUMANN_WIND NEUMANN_PRES MLC_LAT MLC_LON MLC_CLASS MLC_WIND MLC_PRES USA_GUST BOM_GUST BOM_GUST_PER REUNION_GUST REUNION_GUST_PER USA_SEAHGT USA_SEARAD_NE USA_SEARAD_SE USA_SEARAD_SW USA_SEARAD_NW STORM_SPEED STORM_DIR
1887314N33318 1887 70 NA NA NOT_NAMED 1887-11-09 12:00:00 SS 32.5000 -42.0000 main 1834 1812 _____________O -1 32.5000 -42.0000 SD 30 16 46
1887314N33318 1887 70 NA NA NOT_NAMED 1887-11-09 15:00:00 SS 33.0609 -41.2994 main 1807 1793 _____________P -1 33.0609 -41.2994 SD 30 16 47
1887314N33318 1887 70 NA NA NOT_NAMED 1887-11-09 18:00:00 SS 33.6000 -40.6000 main 1793 1777 _____________O -1 33.6000 -40.6000 SD 30 16 48
1887314N33318 1887 70 NA NA NOT_NAMED 1887-11-09 21:00:00 SS 34.1070 -39.9064 main 1782 1771 _____________P -1 34.1070 -39.9064 SD 32 15 49
1887314N33318 1887 70 NA NA NOT_NAMED 1887-11-10 00:00:00 SS 34.6000 -39.2000 main 1775 1768 _____________O -1 34.6000 -39.2000 SS 35 16 51
1887314N33318 1887 70 NA NA NOT_NAMED 1887-11-10 03:00:00 SS 35.0923 -38.4492 main 1776 1771 _____________P -1 35.0923 -38.4492 SS 37 16 51
1887314N33318 1887 70 NA NA NOT_NAMED 1887-11-10 06:00:00 SS 35.6000 -37.7000 main 1775 1763 _____________O -1 35.6000 -37.7000 SS 40 16 46
1887314N33318 1887 70 NA NA NOT_NAMED 1887-11-10 09:00:00 SS 36.2239 -37.0236 main 1769 1759 _____________P -1 36.2239 -37.0236 SS 42 16 46
1887314N33318 1887 70 NA NA NOT_NAMED 1887-11-10 12:00:00 SS 36.7000 -36.3000 main 1773 1773 _____________O -1 36.7000 -36.3000 SS 45 993 14 66
1887314N33318 1887 70 NA NA NOT_NAMED 1887-11-10 15:00:00 SS 36.7972 -35.4356 main 1823 1823 _____________P -1 36.7972 -35.4356 SS 45 14 90
1887314N33318 1887 70 NA NA NOT_NAMED 1887-11-10 18:00:00 SS 36.7000 -34.5000 main 1889 1821 _____________O -1 36.7000 -34.5000 SS 45 15 97
1887314N33318 1887 70 NA NA NOT_NAMED 1887-11-10 21:00:00 SS 36.6221 -33.5499 main 1813 1744 _____________P -1 36.6221 -33.5499 SS 45 15 97
1887314N33318 1887 70 NA NA NOT_NAMED 1887-11-11 00:00:00 SS 36.5000 -32.6000 main 1736 1660 _____________O -1 36.5000 -32.6000 SS 45 15 100
1887314N33318 1887 70 NA NA NOT_NAMED 1887-11-11 03:00:00 SS 36.3492 -31.6924 main 1655 1579 _____________P -1 36.3492 -31.6924 SS 45 15 102
1887314N33318 1887 70 NA NA NOT_NAMED 1887-11-11 06:00:00 SS 36.2000 -30.8000 main 1579 1506 _____________O -1 36.2000 -30.8000 SS 45 14 103
1887314N33318 1887 70 NA NA NOT_NAMED 1887-11-11 09:00:00 SS 36.0369 -29.9880 main 1506 1438 _____________P -1 36.0369 -29.9880 SS 45 15 98
1887314N33318 1887 70 NA NA NOT_NAMED 1887-11-11 12:00:00 SS 36.0000 -29.0000 main 1430 1341 _____________O -1 36.0000 -29.0000 SS 45 19 86
1887314N33318 1887 70 NA NA NOT_NAMED 1887-11-11 15:00:00 SS 36.1611 -27.5896 main 1341 1261 _____________P -1 36.1611 -27.5896 SS 42 25 78
1887314N33318 1887 70 NA NA NOT_NAMED 1887-11-11 18:00:00 ET 36.5000 -26.0000 main 1255 1203 _____________O -1 36.5000 -26.0000 EX 40 26 72
1887314N33318 1887 70 NA NA NOT_NAMED 1887-11-11 21:00:00 ET 36.9757 -24.5011 main 1206 1176 _____________P -1 36.9757 -24.5011 EX 40 26 67
1887314N33318 1887 70 NA NA NOT_NAMED 1887-11-12 00:00:00 ET 37.5000 -23.0000 main 1175 1056 _____________O -1 37.5000 -23.0000 EX 40 26 68
1887314N33318 1887 70 NA NA NOT_NAMED 1887-11-12 03:00:00 ET 37.9206 -21.4980 main 1047 920 _____________P -1 37.9206 -21.4980 EX 40 25 71
1887314N33318 1887 70 NA NA NOT_NAMED 1887-11-12 06:00:00 ET 38.3000 -20.0000 main 911 778 _____________O -1 38.3000 -20.0000 EX 40 26 73
1887314N33318 1887 70 NA NA NOT_NAMED 1887-11-12 09:00:00 ET 38.6821 -18.3661 main 769 655 _____________P -1 38.6821 -18.3661 EX 40 24 73
1887314N33318 1887 70 NA NA NOT_NAMED 1887-11-12 12:00:00 ET 39.0000 -17.0000 main 647 587 _____________O -1 39.0000 -17.0000 EX 40 17 72
1887314N33318 1887 70 NA NA NOT_NAMED 1887-11-12 15:00:00 ET 39.2191 -16.2551 main 587 546 _____________P -1 39.2191 -16.2551 EX 40 10 67
1887314N33318 1887 70 NA NA NOT_NAMED 1887-11-12 18:00:00 ET 39.4000 -15.8000 main 546 506 _____________O -1 39.4000 -15.8000 EX 40 9 64
1887314N33318 1887 70 NA NA NOT_NAMED 1887-11-12 21:00:00 ET 39.5996 -15.2421 main 497 459 _____________P -1 39.5996 -15.2421 EX 40 9 65
1887314N33318 1887 70 NA NA NOT_NAMED 1887-11-13 00:00:00 ET 39.8000 -14.7000 main 459 424 _____________O -1 39.8000 -14.7000 EX 40 9 64
1887314N33318 1887 70 NA NA NOT_NAMED 1887-11-13 03:00:00 ET 40.0072 -14.1499 main 416 379 _____________P -1 40.0072 -14.1499 EX 40 9 65
1887314N33318 1887 70 NA NA NOT_NAMED 1887-11-13 06:00:00 ET 40.2000 -13.6000 main 379 342 _____________O -1 40.2000 -13.6000 EX 40 9 67
1887314N33318 1887 70 NA NA NOT_NAMED 1887-11-13 09:00:00 ET 40.3605 -13.0503 main 345 303 _____________P -1 40.3605 -13.0503 EX 40 9 70
1887314N33318 1887 70 NA NA NOT_NAMED 1887-11-13 12:00:00 ET 40.5000 -12.5000 main 303 _____________O -1 40.5000 -12.5000 EX 40 9 72

About IBTrACS Database

This database is a web-friendly format of International Best Track Archive for Climate Stewardship (IBTrACS), a global best track data archive curated by NOAA dating back to 1842.

Updated: 2021-10-19